Terminal Aerodrome Forecast
Issued by NWS

Home | Current Version | Previous Version | Text Only | Print | Product List | Glossary On
Versions: 1 2 3 4 5 6 7 8 9 10 11 12 13 14 15
000
FTUS44 KBMX 282337
TAFTCL
TAF
KTCL 282337Z 2900/2924 12005KT P6SM SCT060 BKN250
      TEMPO 2900/2901 16012G25KT 3SM TSRA BKN030CB OVC050
     FM291100 13006KT P6SM VCTS BKN020 BKN040CB=

USA.gov is the U.S. government's official web portal to all federal, state and local government web resources and services.